sensor_id;sensor_type;location;lat;lon;timestamp;P1;durP1;ratioP1;P2;durP2;ratioP2
13475;SDS011;6810;63.824;20.288;2023-07-13T00:00:10;2.03;;;1.80;;
13475;SDS011;6810;63.824;20.288;2023-07-13T00:02:57;2.83;;;2.10;;
13475;SDS011;6810;63.824;20.288;2023-07-13T00:05:44;2.03;;;1.93;;
13475;SDS011;6810;63.824;20.288;2023-07-13T00:08:31;2.40;;;2.20;;
13475;SDS011;6810;63.824;20.288;2023-07-13T00:11:19;2.40;;;2.20;;
13475;SDS011;6810;63.824;20.288;2023-07-13T00:14:06;2.37;;;2.27;;
13475;SDS011;6810;63.824;20.288;2023-07-13T00:16:53;2.30;;;2.17;;
13475;SDS011;6810;63.824;20.288;2023-07-13T00:19:40;2.43;;;2.07;;
13475;SDS011;6810;63.824;20.288;2023-07-13T00:22:27;2.20;;;2.10;;
13475;SDS011;6810;63.824;20.288;2023-07-13T00:25:15;2.20;;;2.10;;
13475;SDS011;6810;63.824;20.288;2023-07-13T00:28:02;2.43;;;2.23;;
13475;SDS011;6810;63.824;20.288;2023-07-13T00:30:49;2.40;;;2.20;;
13475;SDS011;6810;63.824;20.288;2023-07-13T00:33:36;2.60;;;2.40;;
13475;SDS011;6810;63.824;20.288;2023-07-13T00:36:23;2.43;;;2.23;;
13475;SDS011;6810;63.824;20.288;2023-07-13T00:39:10;2.43;;;2.23;;
13475;SDS011;6810;63.824;20.288;2023-07-13T00:41:57;2.40;;;2.07;;
13475;SDS011;6810;63.824;20.288;2023-07-13T00:45:01;2.00;;;1.90;;
13475;SDS011;6810;63.824;20.288;2023-07-13T00:48:21;2.70;;;2.50;;
13475;SDS011;6810;63.824;20.288;2023-07-13T00:51:15;2.30;;;2.20;;
13475;SDS011;6810;63.824;20.288;2023-07-13T00:54:06;2.67;;;2.47;;
13475;SDS011;6810;63.824;20.288;2023-07-13T00:56:57;2.70;;;2.50;;
13475;SDS011;6810;63.824;20.288;2023-07-13T00:59:48;2.50;;;2.10;;
13475;SDS011;6810;63.824;20.288;2023-07-13T01:02:39;2.57;;;2.37;;
13475;SDS011;6810;63.824;20.288;2023-07-13T01:05:29;3.20;;;2.40;;
13475;SDS011;6810;63.824;20.288;2023-07-13T01:08:16;2.50;;;2.30;;
13475;SDS011;6810;63.824;20.288;2023-07-13T01:11:03;2.57;;;2.37;;
13475;SDS011;6810;63.824;20.288;2023-07-13T01:13:51;3.00;;;2.80;;
13475;SDS011;6810;63.824;20.288;2023-07-13T01:16:39;2.50;;;2.30;;
13475;SDS011;6810;63.824;20.288;2023-07-13T01:19:43;2.37;;;2.17;;
13475;SDS011;6810;63.824;20.288;2023-07-13T01:22:31;2.50;;;2.30;;
13475;SDS011;6810;63.824;20.288;2023-07-13T01:25:19;2.77;;;2.57;;
13475;SDS011;6810;63.824;20.288;2023-07-13T01:28:08;2.77;;;2.50;;
13475;SDS011;6810;63.824;20.288;2023-07-13T01:30:56;2.60;;;2.40;;
13475;SDS011;6810;63.824;20.288;2023-07-13T01:33:44;2.60;;;2.40;;
13475;SDS011;6810;63.824;20.288;2023-07-13T01:36:32;2.50;;;2.30;;
13475;SDS011;6810;63.824;20.288;2023-07-13T01:39:20;3.07;;;2.50;;
13475;SDS011;6810;63.824;20.288;2023-07-13T01:42:08;2.37;;;2.13;;
13475;SDS011;6810;63.824;20.288;2023-07-13T01:44:55;4.57;;;2.63;;
13475;SDS011;6810;63.824;20.288;2023-07-13T01:47:42;2.83;;;2.63;;
13475;SDS011;6810;63.824;20.288;2023-07-13T01:50:29;2.60;;;2.40;;
13475;SDS011;6810;63.824;20.288;2023-07-13T01:53:16;2.80;;;2.60;;
13475;SDS011;6810;63.824;20.288;2023-07-13T01:56:03;2.93;;;2.40;;
13475;SDS011;6810;63.824;20.288;2023-07-13T01:58:51;2.60;;;2.40;;
13475;SDS011;6810;63.824;20.288;2023-07-13T02:01:28;2.93;;;2.73;;
13475;SDS011;6810;63.824;20.288;2023-07-13T02:03:55;3.10;;;2.80;;
13475;SDS011;6810;63.824;20.288;2023-07-13T02:06:22;3.13;;;2.83;;
13475;SDS011;6810;63.824;20.288;2023-07-13T02:08:49;2.93;;;2.70;;
13475;SDS011;6810;63.824;20.288;2023-07-13T02:11:16;2.87;;;2.67;;
13475;SDS011;6810;63.824;20.288;2023-07-13T02:13:44;3.10;;;2.90;;
13475;SDS011;6810;63.824;20.288;2023-07-13T02:16:11;2.70;;;2.50;;
13475;SDS011;6810;63.824;20.288;2023-07-13T02:18:39;2.73;;;2.53;;
13475;SDS011;6810;63.824;20.288;2023-07-13T02:21:06;2.80;;;2.50;;
13475;SDS011;6810;63.824;20.288;2023-07-13T02:23:33;2.87;;;2.67;;
13475;SDS011;6810;63.824;20.288;2023-07-13T02:26:01;3.07;;;2.77;;
13475;SDS011;6810;63.824;20.288;2023-07-13T02:28:30;2.63;;;2.43;;
13475;SDS011;6810;63.824;20.288;2023-07-13T02:31:04;2.80;;;2.60;;
13475;SDS011;6810;63.824;20.288;2023-07-13T02:33:35;3.00;;;2.70;;
13475;SDS011;6810;63.824;20.288;2023-07-13T02:36:02;3.00;;;2.80;;
13475;SDS011;6810;63.824;20.288;2023-07-13T02:38:32;2.80;;;2.60;;
13475;SDS011;6810;63.824;20.288;2023-07-13T02:41:02;2.90;;;2.70;;
13475;SDS011;6810;63.824;20.288;2023-07-13T02:43:30;3.20;;;2.90;;
13475;SDS011;6810;63.824;20.288;2023-07-13T02:45:58;2.80;;;2.60;;
13475;SDS011;6810;63.824;20.288;2023-07-13T02:48:30;2.40;;;2.20;;
13475;SDS011;6810;63.824;20.288;2023-07-13T02:50:57;3.33;;;2.97;;
13475;SDS011;6810;63.824;20.288;2023-07-13T02:53:24;3.30;;;3.00;;
13475;SDS011;6810;63.824;20.288;2023-07-13T02:55:52;2.87;;;2.37;;
13475;SDS011;6810;63.824;20.288;2023-07-13T02:58:19;3.03;;;2.70;;
13475;SDS011;6810;63.824;20.288;2023-07-13T03:00:46;3.10;;;2.90;;
13475;SDS011;6810;63.824;20.288;2023-07-13T03:03:14;2.77;;;2.57;;
13475;SDS011;6810;63.824;20.288;2023-07-13T03:05:43;2.87;;;2.57;;
13475;SDS011;6810;63.824;20.288;2023-07-13T03:08:12;3.33;;;2.53;;
13475;SDS011;6810;63.824;20.288;2023-07-13T03:10:41;2.80;;;2.60;;
13475;SDS011;6810;63.824;20.288;2023-07-13T03:13:10;3.30;;;3.00;;
13475;SDS011;6810;63.824;20.288;2023-07-13T03:15:37;3.23;;;2.93;;
13475;SDS011;6810;63.824;20.288;2023-07-13T03:18:04;2.60;;;2.40;;
13475;SDS011;6810;63.824;20.288;2023-07-13T03:20:32;3.13;;;2.87;;
13475;SDS011;6810;63.824;20.288;2023-07-13T03:23:00;3.27;;;2.60;;
13475;SDS011;6810;63.824;20.288;2023-07-13T03:25:28;3.00;;;2.70;;
13475;SDS011;6810;63.824;20.288;2023-07-13T03:27:55;3.00;;;2.80;;
13475;SDS011;6810;63.824;20.288;2023-07-13T03:30:22;2.90;;;2.70;;
13475;SDS011;6810;63.824;20.288;2023-07-13T03:32:49;3.53;;;3.10;;
13475;SDS011;6810;63.824;20.288;2023-07-13T03:35:17;2.63;;;2.43;;
13475;SDS011;6810;63.824;20.288;2023-07-13T03:37:45;2.80;;;2.60;;
13475;SDS011;6810;63.824;20.288;2023-07-13T03:40:17;3.07;;;2.63;;
13475;SDS011;6810;63.824;20.288;2023-07-13T03:42:45;3.37;;;2.70;;
13475;SDS011;6810;63.824;20.288;2023-07-13T03:45:15;2.73;;;2.53;;
13475;SDS011;6810;63.824;20.288;2023-07-13T03:47:42;3.50;;;2.60;;
13475;SDS011;6810;63.824;20.288;2023-07-13T03:50:09;3.27;;;2.97;;
13475;SDS011;6810;63.824;20.288;2023-07-13T03:52:38;3.20;;;2.90;;
13475;SDS011;6810;63.824;20.288;2023-07-13T03:55:05;2.97;;;2.70;;
13475;SDS011;6810;63.824;20.288;2023-07-13T03:57:33;3.13;;;2.83;;
13475;SDS011;6810;63.824;20.288;2023-07-13T04:00:04;3.47;;;2.70;;
13475;SDS011;6810;63.824;20.288;2023-07-13T04:02:41;3.30;;;3.00;;
13475;SDS011;6810;63.824;20.288;2023-07-13T04:05:08;2.93;;;2.73;;
13475;SDS011;6810;63.824;20.288;2023-07-13T04:07:35;2.90;;;2.70;;
13475;SDS011;6810;63.824;20.288;2023-07-13T04:10:02;3.67;;;2.77;;
13475;SDS011;6810;63.824;20.288;2023-07-13T04:12:30;2.80;;;2.50;;
13475;SDS011;6810;63.824;20.288;2023-07-13T04:14:57;3.00;;;2.70;;
13475;SDS011;6810;63.824;20.288;2023-07-13T04:17:24;2.73;;;2.53;;
13475;SDS011;6810;63.824;20.288;2023-07-13T04:19:51;2.90;;;2.70;;
13475;SDS011;6810;63.824;20.288;2023-07-13T04:22:18;2.80;;;2.60;;
13475;SDS011;6810;63.824;20.288;2023-07-13T04:24:45;3.00;;;2.80;;
13475;SDS011;6810;63.824;20.288;2023-07-13T04:27:12;3.00;;;2.80;;
13475;SDS011;6810;63.824;20.288;2023-07-13T04:29:39;3.37;;;3.07;;
13475;SDS011;6810;63.824;20.288;2023-07-13T04:32:07;2.83;;;2.63;;
13475;SDS011;6810;63.824;20.288;2023-07-13T04:34:34;3.00;;;2.80;;
13475;SDS011;6810;63.824;20.288;2023-07-13T04:37:02;3.27;;;3.03;;
13475;SDS011;6810;63.824;20.288;2023-07-13T04:39:29;2.83;;;2.63;;
13475;SDS011;6810;63.824;20.288;2023-07-13T04:41:56;3.03;;;2.83;;
13475;SDS011;6810;63.824;20.288;2023-07-13T04:44:23;3.30;;;2.80;;
13475;SDS011;6810;63.824;20.288;2023-07-13T04:46:50;2.87;;;2.67;;
13475;SDS011;6810;63.824;20.288;2023-07-13T04:49:17;3.30;;;3.00;;
13475;SDS011;6810;63.824;20.288;2023-07-13T04:51:44;3.23;;;2.77;;
13475;SDS011;6810;63.824;20.288;2023-07-13T04:54:11;3.07;;;2.87;;
13475;SDS011;6810;63.824;20.288;2023-07-13T04:56:38;3.30;;;2.97;;
13475;SDS011;6810;63.824;20.288;2023-07-13T04:59:06;3.60;;;3.30;;
13475;SDS011;6810;63.824;20.288;2023-07-13T05:01:33;3.37;;;3.03;;
13475;SDS011;6810;63.824;20.288;2023-07-13T05:04:00;3.53;;;3.17;;
13475;SDS011;6810;63.824;20.288;2023-07-13T05:06:28;3.00;;;2.80;;
13475;SDS011;6810;63.824;20.288;2023-07-13T05:08:55;3.63;;;3.00;;
13475;SDS011;6810;63.824;20.288;2023-07-13T05:11:22;3.07;;;2.87;;
13475;SDS011;6810;63.824;20.288;2023-07-13T05:13:49;2.70;;;2.50;;
13475;SDS011;6810;63.824;20.288;2023-07-13T05:16:16;3.27;;;3.00;;
13475;SDS011;6810;63.824;20.288;2023-07-13T05:18:43;3.23;;;3.00;;
13475;SDS011;6810;63.824;20.288;2023-07-13T05:21:11;4.70;;;3.33;;
13475;SDS011;6810;63.824;20.288;2023-07-13T05:23:39;4.20;;;3.33;;
13475;SDS011;6810;63.824;20.288;2023-07-13T05:26:08;3.33;;;3.13;;
13475;SDS011;6810;63.824;20.288;2023-07-13T05:28:37;3.37;;;3.07;;
13475;SDS011;6810;63.824;20.288;2023-07-13T05:31:04;3.40;;;3.07;;
13475;SDS011;6810;63.824;20.288;2023-07-13T05:33:33;3.30;;;2.97;;
13475;SDS011;6810;63.824;20.288;2023-07-13T05:36:01;3.20;;;3.00;;
13475;SDS011;6810;63.824;20.288;2023-07-13T05:38:28;3.73;;;3.33;;
13475;SDS011;6810;63.824;20.288;2023-07-13T05:40:56;3.13;;;2.93;;
13475;SDS011;6810;63.824;20.288;2023-07-13T05:43:24;3.20;;;3.00;;
13475;SDS011;6810;63.824;20.288;2023-07-13T05:45:55;3.33;;;3.10;;
13475;SDS011;6810;63.824;20.288;2023-07-13T05:48:23;3.50;;;3.20;;
13475;SDS011;6810;63.824;20.288;2023-07-13T05:50:50;3.70;;;3.37;;
13475;SDS011;6810;63.824;20.288;2023-07-13T05:53:17;4.10;;;3.37;;
13475;SDS011;6810;63.824;20.288;2023-07-13T05:55:45;3.20;;;3.00;;
13475;SDS011;6810;63.824;20.288;2023-07-13T05:58:14;4.87;;;3.37;;
13475;SDS011;6810;63.824;20.288;2023-07-13T06:00:41;5.10;;;4.60;;
13475;SDS011;6810;63.824;20.288;2023-07-13T06:03:08;3.90;;;3.60;;
13475;SDS011;6810;63.824;20.288;2023-07-13T06:05:35;3.23;;;3.03;;
13475;SDS011;6810;63.824;20.288;2023-07-13T06:08:05;3.20;;;3.00;;
13475;SDS011;6810;63.824;20.288;2023-07-13T06:10:35;3.43;;;3.13;;
13475;SDS011;6810;63.824;20.288;2023-07-13T06:13:02;3.10;;;2.80;;
13475;SDS011;6810;63.824;20.288;2023-07-13T06:15:29;3.20;;;2.90;;
13475;SDS011;6810;63.824;20.288;2023-07-13T06:17:57;2.80;;;2.60;;
13475;SDS011;6810;63.824;20.288;2023-07-13T06:20:24;3.37;;;3.07;;
13475;SDS011;6810;63.824;20.288;2023-07-13T06:22:51;3.90;;;3.13;;
13475;SDS011;6810;63.824;20.288;2023-07-13T06:25:18;3.20;;;3.00;;
13475;SDS011;6810;63.824;20.288;2023-07-13T06:27:45;4.23;;;2.97;;
13475;SDS011;6810;63.824;20.288;2023-07-13T06:30:12;3.30;;;3.10;;
13475;SDS011;6810;63.824;20.288;2023-07-13T06:32:40;3.50;;;2.90;;
13475;SDS011;6810;63.824;20.288;2023-07-13T06:35:07;3.93;;;2.93;;
13475;SDS011;6810;63.824;20.288;2023-07-13T06:37:35;2.97;;;2.70;;
13475;SDS011;6810;63.824;20.288;2023-07-13T06:40:02;3.00;;;2.70;;
13475;SDS011;6810;63.824;20.288;2023-07-13T06:42:30;3.47;;;3.17;;
13475;SDS011;6810;63.824;20.288;2023-07-13T06:44:57;3.30;;;3.00;;
13475;SDS011;6810;63.824;20.288;2023-07-13T06:47:24;3.10;;;2.90;;
13475;SDS011;6810;63.824;20.288;2023-07-13T06:49:51;12.77;;;3.43;;
13475;SDS011;6810;63.824;20.288;2023-07-13T06:52:18;3.07;;;2.77;;
13475;SDS011;6810;63.824;20.288;2023-07-13T06:54:45;3.00;;;2.80;;
13475;SDS011;6810;63.824;20.288;2023-07-13T06:57:13;3.27;;;3.00;;
13475;SDS011;6810;63.824;20.288;2023-07-13T06:59:40;3.10;;;2.80;;
13475;SDS011;6810;63.824;20.288;2023-07-13T07:02:08;2.93;;;2.73;;
13475;SDS011;6810;63.824;20.288;2023-07-13T07:04:37;3.43;;;3.13;;
13475;SDS011;6810;63.824;20.288;2023-07-13T07:07:04;3.20;;;2.90;;
13475;SDS011;6810;63.824;20.288;2023-07-13T07:09:31;3.00;;;2.80;;
13475;SDS011;6810;63.824;20.288;2023-07-13T07:11:58;3.30;;;3.00;;
13475;SDS011;6810;63.824;20.288;2023-07-13T07:14:30;3.37;;;3.07;;
13475;SDS011;6810;63.824;20.288;2023-07-13T07:16:57;2.97;;;2.77;;
13475;SDS011;6810;63.824;20.288;2023-07-13T07:19:26;3.40;;;3.10;;
13475;SDS011;6810;63.824;20.288;2023-07-13T07:21:54;3.47;;;3.10;;
13475;SDS011;6810;63.824;20.288;2023-07-13T07:24:21;2.63;;;2.43;;
13475;SDS011;6810;63.824;20.288;2023-07-13T07:26:48;2.80;;;2.60;;
13475;SDS011;6810;63.824;20.288;2023-07-13T07:29:18;3.20;;;2.60;;
13475;SDS011;6810;63.824;20.288;2023-07-13T07:31:48;3.87;;;2.90;;
13475;SDS011;6810;63.824;20.288;2023-07-13T07:34:31;3.10;;;2.80;;
13475;SDS011;6810;63.824;20.288;2023-07-13T07:37:01;3.70;;;2.77;;
13475;SDS011;6810;63.824;20.288;2023-07-13T07:39:32;3.23;;;3.03;;
13475;SDS011;6810;63.824;20.288;2023-07-13T07:41:59;3.00;;;2.80;;
13475;SDS011;6810;63.824;20.288;2023-07-13T07:44:26;3.30;;;2.73;;
13475;SDS011;6810;63.824;20.288;2023-07-13T07:46:53;3.40;;;3.10;;
13475;SDS011;6810;63.824;20.288;2023-07-13T07:49:21;3.13;;;2.93;;
13475;SDS011;6810;63.824;20.288;2023-07-13T07:51:48;2.90;;;2.70;;
13475;SDS011;6810;63.824;20.288;2023-07-13T07:54:15;3.37;;;2.93;;
13475;SDS011;6810;63.824;20.288;2023-07-13T07:57:02;3.00;;;2.80;;
13475;SDS011;6810;63.824;20.288;2023-07-13T07:59:32;2.93;;;2.73;;
13475;SDS011;6810;63.824;20.288;2023-07-13T08:02:03;3.00;;;2.80;;
13475;SDS011;6810;63.824;20.288;2023-07-13T08:04:33;3.50;;;3.20;;
13475;SDS011;6810;63.824;20.288;2023-07-13T08:07:03;2.90;;;2.60;;
13475;SDS011;6810;63.824;20.288;2023-07-13T08:09:31;3.37;;;2.73;;
13475;SDS011;6810;63.824;20.288;2023-07-13T08:11:59;2.80;;;2.50;;
13475;SDS011;6810;63.824;20.288;2023-07-13T08:14:29;3.30;;;2.90;;
13475;SDS011;6810;63.824;20.288;2023-07-13T08:17:16;2.83;;;2.60;;
13475;SDS011;6810;63.824;20.288;2023-07-13T08:19:43;2.97;;;2.77;;
13475;SDS011;6810;63.824;20.288;2023-07-13T08:22:10;2.80;;;2.60;;
13475;SDS011;6810;63.824;20.288;2023-07-13T08:24:38;2.73;;;2.53;;
13475;SDS011;6810;63.824;20.288;2023-07-13T08:27:05;4.00;;;2.90;;
13475;SDS011;6810;63.824;20.288;2023-07-13T08:29:32;2.70;;;2.50;;
13475;SDS011;6810;63.824;20.288;2023-07-13T08:31:59;2.73;;;2.53;;
13475;SDS011;6810;63.824;20.288;2023-07-13T08:34:27;3.20;;;2.80;;
13475;SDS011;6810;63.824;20.288;2023-07-13T08:36:54;2.80;;;2.60;;
13475;SDS011;6810;63.824;20.288;2023-07-13T08:39:21;2.70;;;2.50;;
13475;SDS011;6810;63.824;20.288;2023-07-13T08:41:49;2.60;;;2.40;;
13475;SDS011;6810;63.824;20.288;2023-07-13T08:44:25;2.30;;;2.10;;
13475;SDS011;6810;63.824;20.288;2023-07-13T08:47:06;2.70;;;2.50;;
13475;SDS011;6810;63.824;20.288;2023-07-13T08:49:37;2.47;;;2.27;;
13475;SDS011;6810;63.824;20.288;2023-07-13T08:52:08;2.73;;;2.47;;
13475;SDS011;6810;63.824;20.288;2023-07-13T08:54:44;2.70;;;2.50;;
13475;SDS011;6810;63.824;20.288;2023-07-13T08:57:17;2.87;;;2.67;;
13475;SDS011;6810;63.824;20.288;2023-07-13T08:59:46;2.80;;;2.50;;
13475;SDS011;6810;63.824;20.288;2023-07-13T09:02:17;3.93;;;2.60;;
13475;SDS011;6810;63.824;20.288;2023-07-13T09:04:48;2.20;;;2.10;;
13475;SDS011;6810;63.824;20.288;2023-07-13T09:07:31;2.13;;;2.03;;
13475;SDS011;6810;63.824;20.288;2023-07-13T09:15:51;2.90;;;2.20;;
13475;SDS011;6810;63.824;20.288;2023-07-13T09:21:07;2.30;;;2.10;;
13475;SDS011;6810;63.824;20.288;2023-07-13T09:23:40;2.37;;;2.07;;
13475;SDS011;6810;63.824;20.288;2023-07-13T09:26:17;2.10;;;2.00;;
13475;SDS011;6810;63.824;20.288;2023-07-13T09:28:48;2.53;;;2.10;;
13475;SDS011;6810;63.824;20.288;2023-07-13T09:31:52;2.00;;;1.90;;
13475;SDS011;6810;63.824;20.288;2023-07-13T09:34:19;2.00;;;1.90;;
13475;SDS011;6810;63.824;20.288;2023-07-13T09:36:47;1.90;;;1.80;;
13475;SDS011;6810;63.824;20.288;2023-07-13T09:39:15;2.27;;;2.07;;
13475;SDS011;6810;63.824;20.288;2023-07-13T09:42:01;1.90;;;1.80;;
13475;SDS011;6810;63.824;20.288;2023-07-13T09:44:49;2.70;;;1.97;;
13475;SDS011;6810;63.824;20.288;2023-07-13T09:47:22;2.00;;;1.90;;
13475;SDS011;6810;63.824;20.288;2023-07-13T09:49:54;4.20;;;2.00;;
13475;SDS011;6810;63.824;20.288;2023-07-13T09:52:43;1.97;;;1.87;;
13475;SDS011;6810;63.824;20.288;2023-07-13T09:55:30;2.30;;;2.10;;
13475;SDS011;6810;63.824;20.288;2023-07-13T09:58:15;2.30;;;2.10;;
13475;SDS011;6810;63.824;20.288;2023-07-13T10:00:59;2.03;;;1.93;;
13475;SDS011;6810;63.824;20.288;2023-07-13T10:03:36;2.83;;;2.13;;
13475;SDS011;6810;63.824;20.288;2023-07-13T10:06:13;2.80;;;2.00;;
13475;SDS011;6810;63.824;20.288;2023-07-13T10:08:45;2.40;;;2.20;;
13475;SDS011;6810;63.824;20.288;2023-07-13T10:11:23;2.30;;;2.10;;
13475;SDS011;6810;63.824;20.288;2023-07-13T10:13:57;2.27;;;2.17;;
13475;SDS011;6810;63.824;20.288;2023-07-13T10:16:39;2.17;;;1.97;;
13475;SDS011;6810;63.824;20.288;2023-07-13T10:22:01;2.30;;;2.10;;
13475;SDS011;6810;63.824;20.288;2023-07-13T10:24:37;2.20;;;2.10;;
13475;SDS011;6810;63.824;20.288;2023-07-13T10:29:55;2.40;;;2.30;;
13475;SDS011;6810;63.824;20.288;2023-07-13T10:32:50;2.27;;;2.13;;
13475;SDS011;6810;63.824;20.288;2023-07-13T10:35:17;2.67;;;2.47;;
13475;SDS011;6810;63.824;20.288;2023-07-13T10:38:03;2.50;;;2.30;;
13475;SDS011;6810;63.824;20.288;2023-07-13T10:40:41;2.73;;;2.30;;
13475;SDS011;6810;63.824;20.288;2023-07-13T10:43:14;2.43;;;2.23;;
13475;SDS011;6810;63.824;20.288;2023-07-13T10:45:50;2.23;;;2.13;;
13475;SDS011;6810;63.824;20.288;2023-07-13T10:48:18;2.33;;;2.23;;
13475;SDS011;6810;63.824;20.288;2023-07-13T10:50:46;2.30;;;2.20;;
13475;SDS011;6810;63.824;20.288;2023-07-13T10:53:18;2.67;;;2.50;;
13475;SDS011;6810;63.824;20.288;2023-07-13T10:56:00;2.63;;;2.37;;
13475;SDS011;6810;63.824;20.288;2023-07-13T10:58:36;4.13;;;2.37;;
13475;SDS011;6810;63.824;20.288;2023-07-13T11:03:35;2.70;;;2.50;;
13475;SDS011;6810;63.824;20.288;2023-07-13T11:06:27;2.57;;;2.37;;
13475;SDS011;6810;63.824;20.288;2023-07-13T11:09:07;2.63;;;2.43;;
13475;SDS011;6810;63.824;20.288;2023-07-13T11:11:45;2.30;;;2.10;;
13475;SDS011;6810;63.824;20.288;2023-07-13T11:14:26;2.50;;;2.30;;
13475;SDS011;6810;63.824;20.288;2023-07-13T11:19:51;2.20;;;2.10;;
13475;SDS011;6810;63.824;20.288;2023-07-13T11:22:37;2.70;;;2.50;;
13475;SDS011;6810;63.824;20.288;2023-07-13T11:25:25;2.43;;;2.23;;
13475;SDS011;6810;63.824;20.288;2023-07-13T11:36:07;2.60;;;2.40;;
13475;SDS011;6810;63.824;20.288;2023-07-13T11:38:40;2.83;;;2.63;;
13475;SDS011;6810;63.824;20.288;2023-07-13T11:41:14;3.07;;;2.83;;
13475;SDS011;6810;63.824;20.288;2023-07-13T11:43:44;3.63;;;3.33;;
13475;SDS011;6810;63.824;20.288;2023-07-13T11:46:13;3.17;;;2.97;;
13475;SDS011;6810;63.824;20.288;2023-07-13T11:48:51;2.93;;;2.73;;
13475;SDS011;6810;63.824;20.288;2023-07-13T11:51:21;2.93;;;2.73;;
13475;SDS011;6810;63.824;20.288;2023-07-13T11:53:53;2.80;;;2.60;;
13475;SDS011;6810;63.824;20.288;2023-07-13T11:56:24;3.13;;;2.83;;
13475;SDS011;6810;63.824;20.288;2023-07-13T11:58:52;3.40;;;3.07;;
13475;SDS011;6810;63.824;20.288;2023-07-13T12:01:22;3.17;;;2.97;;
13475;SDS011;6810;63.824;20.288;2023-07-13T12:03:52;3.00;;;2.80;;
13475;SDS011;6810;63.824;20.288;2023-07-13T12:09:19;2.80;;;2.60;;
13475;SDS011;6810;63.824;20.288;2023-07-13T12:11:51;2.97;;;2.77;;
13475;SDS011;6810;63.824;20.288;2023-07-13T12:14:19;3.07;;;2.77;;
13475;SDS011;6810;63.824;20.288;2023-07-13T12:16:46;3.33;;;3.00;;
13475;SDS011;6810;63.824;20.288;2023-07-13T12:19:24;3.60;;;2.90;;
13475;SDS011;6810;63.824;20.288;2023-07-13T12:21:57;3.27;;;2.93;;
13475;SDS011;6810;63.824;20.288;2023-07-13T12:24:25;3.07;;;2.80;;
13475;SDS011;6810;63.824;20.288;2023-07-13T12:26:55;3.03;;;2.83;;
13475;SDS011;6810;63.824;20.288;2023-07-13T12:29:36;2.93;;;2.73;;
13475;SDS011;6810;63.824;20.288;2023-07-13T12:32:07;3.30;;;2.70;;
13475;SDS011;6810;63.824;20.288;2023-07-13T12:34:49;3.17;;;2.87;;
13475;SDS011;6810;63.824;20.288;2023-07-13T12:37:21;3.07;;;2.87;;
13475;SDS011;6810;63.824;20.288;2023-07-13T12:39:49;2.87;;;2.53;;
13475;SDS011;6810;63.824;20.288;2023-07-13T12:42:21;2.87;;;2.67;;
13475;SDS011;6810;63.824;20.288;2023-07-13T12:44:56;3.23;;;3.03;;
13475;SDS011;6810;63.824;20.288;2023-07-13T12:47:50;3.70;;;3.40;;
13475;SDS011;6810;63.824;20.288;2023-07-13T12:50:22;3.20;;;2.90;;
13475;SDS011;6810;63.824;20.288;2023-07-13T12:52:54;2.93;;;2.73;;
13475;SDS011;6810;63.824;20.288;2023-07-13T12:55:24;3.40;;;3.10;;
13475;SDS011;6810;63.824;20.288;2023-07-13T12:57:55;2.93;;;2.73;;
13475;SDS011;6810;63.824;20.288;2023-07-13T13:00:33;3.20;;;2.90;;
13475;SDS011;6810;63.824;20.288;2023-07-13T13:05:56;3.53;;;3.33;;
13475;SDS011;6810;63.824;20.288;2023-07-13T13:08:26;3.70;;;3.40;;
13475;SDS011;6810;63.824;20.288;2023-07-13T13:10:53;3.53;;;3.33;;
13475;SDS011;6810;63.824;20.288;2023-07-13T13:13:20;3.33;;;3.00;;
13475;SDS011;6810;63.824;20.288;2023-07-13T13:15:48;4.27;;;3.10;;
13475;SDS011;6810;63.824;20.288;2023-07-13T13:18:16;3.47;;;3.17;;
13475;SDS011;6810;63.824;20.288;2023-07-13T13:20:47;3.80;;;3.40;;
13475;SDS011;6810;63.824;20.288;2023-07-13T13:23:16;4.70;;;3.60;;
13475;SDS011;6810;63.824;20.288;2023-07-13T13:25:45;3.60;;;3.30;;
13475;SDS011;6810;63.824;20.288;2023-07-13T13:28:18;3.67;;;3.20;;
13475;SDS011;6810;63.824;20.288;2023-07-13T13:30:49;3.37;;;3.10;;
13475;SDS011;6810;63.824;20.288;2023-07-13T13:33:18;3.40;;;3.03;;
13475;SDS011;6810;63.824;20.288;2023-07-13T13:35:46;3.83;;;3.53;;
13475;SDS011;6810;63.824;20.288;2023-07-13T13:38:14;4.23;;;3.83;;
13475;SDS011;6810;63.824;20.288;2023-07-13T13:40:43;3.90;;;3.60;;
13475;SDS011;6810;63.824;20.288;2023-07-13T13:43:18;4.40;;;4.00;;
13475;SDS011;6810;63.824;20.288;2023-07-13T13:45:56;4.67;;;3.60;;
13475;SDS011;6810;63.824;20.288;2023-07-13T13:48:29;3.70;;;3.50;;
13475;SDS011;6810;63.824;20.288;2023-07-13T13:50:59;3.73;;;3.47;;
13475;SDS011;6810;63.824;20.288;2023-07-13T13:53:27;4.07;;;3.77;;
13475;SDS011;6810;63.824;20.288;2023-07-13T13:55:54;4.10;;;3.60;;
13475;SDS011;6810;63.824;20.288;2023-07-13T13:58:21;3.93;;;3.63;;
13475;SDS011;6810;63.824;20.288;2023-07-13T14:00:49;3.73;;;3.43;;
13475;SDS011;6810;63.824;20.288;2023-07-13T14:03:17;3.43;;;3.23;;
13475;SDS011;6810;63.824;20.288;2023-07-13T14:05:45;3.70;;;3.50;;
13475;SDS011;6810;63.824;20.288;2023-07-13T14:08:14;3.77;;;3.53;;
13475;SDS011;6810;63.824;20.288;2023-07-13T14:10:42;4.10;;;3.80;;
13475;SDS011;6810;63.824;20.288;2023-07-13T14:13:28;3.67;;;3.47;;
13475;SDS011;6810;63.824;20.288;2023-07-13T14:16:02;3.70;;;3.50;;
13475;SDS011;6810;63.824;20.288;2023-07-13T14:18:32;3.70;;;3.40;;
13475;SDS011;6810;63.824;20.288;2023-07-13T14:20:59;3.70;;;3.50;;
13475;SDS011;6810;63.824;20.288;2023-07-13T14:23:26;3.57;;;3.37;;
13475;SDS011;6810;63.824;20.288;2023-07-13T14:25:53;3.90;;;3.60;;
13475;SDS011;6810;63.824;20.288;2023-07-13T14:28:21;4.50;;;4.20;;
13475;SDS011;6810;63.824;20.288;2023-07-13T14:30:51;4.33;;;4.00;;
13475;SDS011;6810;63.824;20.288;2023-07-13T14:33:19;4.00;;;3.70;;
13475;SDS011;6810;63.824;20.288;2023-07-13T14:35:46;4.30;;;4.00;;
13475;SDS011;6810;63.824;20.288;2023-07-13T14:38:17;4.30;;;4.00;;
13475;SDS011;6810;63.824;20.288;2023-07-13T14:40:46;3.90;;;3.70;;
13475;SDS011;6810;63.824;20.288;2023-07-13T14:43:14;4.27;;;3.97;;
13475;SDS011;6810;63.824;20.288;2023-07-13T14:45:44;3.73;;;3.43;;
13475;SDS011;6810;63.824;20.288;2023-07-13T14:48:14;3.90;;;3.60;;
13475;SDS011;6810;63.824;20.288;2023-07-13T14:50:44;4.10;;;3.80;;
13475;SDS011;6810;63.824;20.288;2023-07-13T14:53:13;3.90;;;3.60;;
13475;SDS011;6810;63.824;20.288;2023-07-13T14:55:40;3.77;;;3.53;;
13475;SDS011;6810;63.824;20.288;2023-07-13T14:58:09;3.50;;;3.30;;
13475;SDS011;6810;63.824;20.288;2023-07-13T15:00:37;3.50;;;3.30;;
13475;SDS011;6810;63.824;20.288;2023-07-13T15:03:04;3.30;;;3.10;;
13475;SDS011;6810;63.824;20.288;2023-07-13T15:05:33;3.13;;;2.93;;
13475;SDS011;6810;63.824;20.288;2023-07-13T15:08:02;3.50;;;3.20;;
13475;SDS011;6810;63.824;20.288;2023-07-13T15:10:31;3.43;;;3.17;;
13475;SDS011;6810;63.824;20.288;2023-07-13T15:13:21;3.30;;;3.10;;
13475;SDS011;6810;63.824;20.288;2023-07-13T15:15:49;3.20;;;3.00;;
13475;SDS011;6810;63.824;20.288;2023-07-13T15:18:19;2.87;;;2.67;;
13475;SDS011;6810;63.824;20.288;2023-07-13T15:20:49;2.90;;;2.70;;
13475;SDS011;6810;63.824;20.288;2023-07-13T15:23:19;2.97;;;2.70;;
13475;SDS011;6810;63.824;20.288;2023-07-13T15:25:46;2.80;;;2.60;;
13475;SDS011;6810;63.824;20.288;2023-07-13T15:28:13;3.27;;;2.43;;
13475;SDS011;6810;63.824;20.288;2023-07-13T15:30:41;3.53;;;2.47;;
13475;SDS011;6810;63.824;20.288;2023-07-13T15:33:21;2.27;;;2.17;;
13475;SDS011;6810;63.824;20.288;2023-07-13T15:35:52;2.50;;;2.40;;
13475;SDS011;6810;63.824;20.288;2023-07-13T15:38:24;3.43;;;2.57;;
13475;SDS011;6810;63.824;20.288;2023-07-13T15:40:54;3.23;;;2.93;;
13475;SDS011;6810;63.824;20.288;2023-07-13T15:43:22;2.33;;;2.23;;
13475;SDS011;6810;63.824;20.288;2023-07-13T15:45:50;2.87;;;2.67;;
13475;SDS011;6810;63.824;20.288;2023-07-13T15:48:19;2.40;;;2.20;;
13475;SDS011;6810;63.824;20.288;2023-07-13T15:50:49;2.90;;;2.70;;
13475;SDS011;6810;63.824;20.288;2023-07-13T15:53:24;2.60;;;2.40;;